createdAt,value
2023-04-20T00:00:25.093Z,92.29
2023-04-20T00:02:53.785Z,92.27
2023-04-20T00:05:21.146Z,92.22
2023-04-20T00:07:49.281Z,92.19
2023-04-20T00:10:16.873Z,92.22
2023-04-20T00:12:44.442Z,92.31
2023-04-20T00:15:11.682Z,92.46
2023-04-20T00:17:39.444Z,92.51
2023-04-20T00:20:09.946Z,92.42
2023-04-20T00:22:38.145Z,92.38
2023-04-20T00:25:05.928Z,92.42
2023-04-20T00:27:33.578Z,92.45
2023-04-20T00:30:00.826Z,92.48
2023-04-20T00:32:29.950Z,92.36
2023-04-20T00:34:57.120Z,92.29
2023-04-20T00:37:25.341Z,92.27
2023-04-20T00:39:55.358Z,92.27
2023-04-20T00:42:22.524Z,92.40
2023-04-20T00:44:51.507Z,92.47
2023-04-20T00:47:18.691Z,92.49
2023-04-20T00:49:46.084Z,92.72
2023-04-20T00:52:13.252Z,92.59
2023-04-20T00:54:40.527Z,92.89
2023-04-20T00:57:07.861Z,92.89
2023-04-20T00:59:35.622Z,92.96
2023-04-20T01:02:02.872Z,93.11
2023-04-20T01:04:30.771Z,93.41
2023-04-20T01:06:58.711Z,93.50
2023-04-20T01:09:25.887Z,93.61
2023-04-20T01:11:53.018Z,93.48
2023-04-20T01:14:20.119Z,93.81
2023-04-20T01:16:47.354Z,94.29
2023-04-20T01:19:14.574Z,94.37
2023-04-20T01:21:42.634Z,94.42
2023-04-20T01:24:09.721Z,94.43
2023-04-20T01:26:36.944Z,94.44
2023-04-20T01:29:04.594Z,94.68
2023-04-20T01:31:31.962Z,94.89
2023-04-20T01:33:59.220Z,95.03
2023-04-20T01:36:26.664Z,94.91
2023-04-20T01:38:53.813Z,94.90
2023-04-20T01:41:21.585Z,94.66
2023-04-20T01:43:49.136Z,94.72
2023-04-20T01:46:16.819Z,94.85
2023-04-20T01:48:44.073Z,94.66
2023-04-20T01:51:12.011Z,94.75
2023-04-20T01:53:39.784Z,94.64
2023-04-20T01:56:08.621Z,94.40
2023-04-20T01:58:36.132Z,94.57
2023-04-20T02:01:03.404Z,94.28
2023-04-20T02:03:31.066Z,94.43
2023-04-20T02:05:59.121Z,94.38
2023-04-20T02:08:30.254Z,94.43
2023-04-20T02:10:58.021Z,94.47
2023-04-20T02:13:25.298Z,94.31
2023-04-20T02:15:52.524Z,94.31
2023-04-20T02:18:19.775Z,94.37
2023-04-20T02:20:47.162Z,94.41
2023-04-20T02:23:14.513Z,94.41
2023-04-20T02:25:42.142Z,94.56
2023-04-20T02:28:11.750Z,94.41
2023-04-20T02:30:39.115Z,94.46
2023-04-20T02:33:14.269Z,94.47
2023-04-20T02:35:44.156Z,94.41
2023-04-20T02:38:11.716Z,94.76
2023-04-20T02:40:39.387Z,95.10
2023-04-20T02:43:06.935Z,95.18
2023-04-20T02:45:34.516Z,95.32
2023-04-20T02:48:02.362Z,95.36
2023-04-20T02:50:30.963Z,95.56
2023-04-20T02:53:18.803Z,95.66
2023-04-20T02:55:50.260Z,95.99
2023-04-20T02:58:27.810Z,96.20
2023-04-20T03:01:13.916Z,96.29
2023-04-20T03:03:41.360Z,96.85
2023-04-20T03:06:12.134Z,96.78
2023-04-20T03:08:40.286Z,96.82
2023-04-20T03:11:27.518Z,97.09
2023-04-20T03:13:55.084Z,97.21
2023-04-20T03:16:22.703Z,97.27
2023-04-20T03:18:53.055Z,97.43
2023-04-20T03:21:22.054Z,97.56
2023-04-20T03:23:50.110Z,97.68
2023-04-20T03:26:18.185Z,97.55
2023-04-20T03:29:04.994Z,97.58
2023-04-20T03:31:32.405Z,97.68
2023-04-20T03:34:00.941Z,97.46
2023-04-20T03:36:29.628Z,97.51
2023-04-20T03:38:57.068Z,97.73
2023-04-20T03:41:24.567Z,97.68
2023-04-20T03:43:52.011Z,97.67
2023-04-20T03:46:20.910Z,97.57
2023-04-20T03:48:49.075Z,97.53
2023-04-20T03:51:16.852Z,97.50
2023-04-20T03:53:44.449Z,97.35
2023-04-20T03:56:14.909Z,97.67
2023-04-20T03:58:42.778Z,97.69
2023-04-20T04:01:15.345Z,97.69
2023-04-20T04:03:46.033Z,97.63
2023-04-20T04:06:13.966Z,97.63
2023-04-20T04:08:41.511Z,97.56
2023-04-20T04:11:09.372Z,97.36
2023-04-20T04:13:37.037Z,97.75
2023-04-20T04:16:06.028Z,97.69
2023-04-20T04:18:33.714Z,98.11
2023-04-20T04:21:07.704Z,97.95
2023-04-20T04:23:37.107Z,97.97
2023-04-20T04:26:13.463Z,98.39
2023-04-20T04:28:45.530Z,98.42
2023-04-20T04:31:21.088Z,98.92
2023-04-20T04:33:49.157Z,99.24
2023-04-20T04:36:26.664Z,99.86
2023-04-20T04:38:54.330Z,100.00
2023-04-20T04:41:23.093Z,100.00
2023-04-20T04:43:50.858Z,100.00
2023-04-20T04:46:27.189Z,100.00
2023-04-20T04:48:56.123Z,100.00
2023-04-20T04:51:23.912Z,100.00
2023-04-20T04:53:51.776Z,100.00
2023-04-20T04:56:20.541Z,100.00
2023-04-20T04:58:47.950Z,100.00
2023-04-20T05:01:15.345Z,100.00
2023-04-20T05:03:42.703Z,100.00
2023-04-20T05:06:10.463Z,100.00
2023-04-20T05:08:37.649Z,100.00
2023-04-20T05:11:05.411Z,100.00
2023-04-20T05:13:32.731Z,100.00
2023-04-20T05:15:59.721Z,100.00
2023-04-20T05:18:27.027Z,100.00
2023-04-20T05:20:54.593Z,100.00
2023-04-20T05:23:21.865Z,100.00
2023-04-20T05:25:51.455Z,100.00
2023-04-20T05:28:19.342Z,100.00
2023-04-20T05:30:46.879Z,100.00
2023-04-20T05:33:15.875Z,100.00
2023-04-20T05:35:43.018Z,100.00
2023-04-20T05:38:10.377Z,100.00
2023-04-20T05:40:37.739Z,100.00
2023-04-20T05:43:05.901Z,100.00
2023-04-20T05:45:34.240Z,100.00
2023-04-20T05:48:01.797Z,100.00
2023-04-20T05:50:31.039Z,100.00
2023-04-20T05:52:58.296Z,100.00
2023-04-20T05:55:26.574Z,100.00
2023-04-20T05:57:53.953Z,100.00
2023-04-20T06:00:23.073Z,100.00
2023-04-20T06:02:52.021Z,100.00
2023-04-20T06:05:20.605Z,100.00
2023-04-20T06:07:48.058Z,100.00
2023-04-20T06:10:15.613Z,100.00
2023-04-20T06:12:43.072Z,100.00
2023-04-20T06:15:10.420Z,100.00
2023-04-20T06:17:39.974Z,100.00
2023-04-20T06:20:08.915Z,100.00
2023-04-20T06:22:42.510Z,100.00
2023-04-20T06:25:11.525Z,100.00
2023-04-20T06:27:39.476Z,100.00
2023-04-20T06:30:07.753Z,100.00
2023-04-20T06:32:37.503Z,100.00
2023-04-20T06:35:08.548Z,100.00
2023-04-20T06:37:36.479Z,100.00
2023-04-20T06:40:10.417Z,100.00
2023-04-20T06:42:37.716Z,100.00
2023-04-20T06:45:06.319Z,100.00
2023-04-20T06:47:33.856Z,100.00
2023-04-20T06:50:01.748Z,100.00
2023-04-20T06:52:30.226Z,100.00
2023-04-20T06:55:00.708Z,100.00
2023-04-20T06:57:28.499Z,100.00
2023-04-20T07:00:15.948Z,100.00
2023-04-20T07:02:45.080Z,100.00
2023-04-20T07:05:13.432Z,100.00
2023-04-20T07:07:41.608Z,100.00
2023-04-20T07:10:11.197Z,100.00
2023-04-20T07:12:40.401Z,100.00
2023-04-20T07:15:10.121Z,100.00
2023-04-20T07:17:37.418Z,100.00
2023-04-20T07:20:07.905Z,100.00
2023-04-20T07:22:36.604Z,100.00
2023-04-20T07:25:05.587Z,100.00
2023-04-20T07:27:40.289Z,100.00
2023-04-20T07:30:08.458Z,100.00
2023-04-20T07:32:35.971Z,100.00
2023-04-20T07:35:03.713Z,100.00
2023-04-20T07:37:32.577Z,100.00
2023-04-20T07:39:59.827Z,100.00
2023-04-20T07:42:27.196Z,100.00
2023-04-20T07:44:54.613Z,100.00
2023-04-20T07:47:22.069Z,100.00
2023-04-20T07:49:49.452Z,100.00
2023-04-20T07:52:17.933Z,100.00
2023-04-20T07:54:45.676Z,100.00
2023-04-20T07:57:13.268Z,100.00
2023-04-20T07:59:41.336Z,100.00
2023-04-20T08:02:08.985Z,100.00
2023-04-20T08:04:38.197Z,100.00
2023-04-20T08:07:05.640Z,100.00
2023-04-20T08:09:32.947Z,100.00
2023-04-20T08:12:01.915Z,100.00
2023-04-20T08:14:29.465Z,100.00
2023-04-20T08:16:56.905Z,100.00
2023-04-20T08:19:24.057Z,100.00
2023-04-20T08:21:52.029Z,100.00
2023-04-20T08:24:20.391Z,100.00
2023-04-20T08:26:47.890Z,100.00
2023-04-20T08:29:15.620Z,100.00
2023-04-20T08:31:43.144Z,100.00
2023-04-20T08:34:11.761Z,100.00
2023-04-20T08:36:39.477Z,100.00
2023-04-20T08:39:11.275Z,100.00
2023-04-20T08:41:38.744Z,100.00
2023-04-20T08:44:07.225Z,100.00
2023-04-20T08:46:34.628Z,100.00
2023-04-20T08:49:03.583Z,100.00
2023-04-20T08:51:32.108Z,100.00
2023-04-20T08:54:04.976Z,100.00
2023-04-20T08:56:36.136Z,100.00
2023-04-20T08:59:05.084Z,100.00
2023-04-20T09:01:35.634Z,100.00
2023-04-20T09:04:15.450Z,100.00
2023-04-20T09:06:44.536Z,100.00
2023-04-20T09:09:11.787Z,100.00
2023-04-20T09:11:40.174Z,100.00
2023-04-20T09:14:13.762Z,100.00
2023-04-20T09:16:51.812Z,100.00
2023-04-20T09:19:25.483Z,100.00
2023-04-20T09:21:55.283Z,100.00
2023-04-20T09:24:24.117Z,100.00
2023-04-20T09:26:51.129Z,100.00
2023-04-20T09:29:20.215Z,100.00
2023-04-20T09:31:48.232Z,100.00
2023-04-20T09:34:15.902Z,100.00
2023-04-20T09:36:49.858Z,100.00
2023-04-20T09:39:18.956Z,100.00
2023-04-20T09:41:46.524Z,100.00
2023-04-20T09:44:15.713Z,100.00
2023-04-20T09:46:43.574Z,100.00
2023-04-20T09:49:12.052Z,100.00
2023-04-20T09:51:46.601Z,100.00
2023-04-20T09:54:15.302Z,100.00
2023-04-20T09:56:42.722Z,100.00
2023-04-20T09:59:10.080Z,100.00
2023-04-20T10:01:37.882Z,100.00
2023-04-20T10:04:10.541Z,100.00
2023-04-20T10:06:37.881Z,100.00
2023-04-20T10:09:06.481Z,100.00
2023-04-20T10:11:51.604Z,100.00
2023-04-20T10:14:25.061Z,100.00
2023-04-20T10:16:59.500Z,100.00
2023-04-20T10:19:56.326Z,100.00
2023-04-20T10:22:34.300Z,100.00
2023-04-20T10:25:02.275Z,100.00
2023-04-20T10:27:31.775Z,100.00
2023-04-20T10:30:11.334Z,100.00
2023-04-20T10:32:38.756Z,100.00
2023-04-20T10:35:08.078Z,100.00
2023-04-20T10:37:35.723Z,100.00
2023-04-20T10:40:06.005Z,100.00
2023-04-20T10:42:45.137Z,100.00
2023-04-20T10:45:12.851Z,100.00
2023-04-20T10:47:44.648Z,100.00
2023-04-20T10:50:13.899Z,100.00
2023-04-20T10:52:41.978Z,100.00
2023-04-20T10:55:20.383Z,100.00
2023-04-20T10:57:54.540Z,100.00
2023-04-20T11:00:32.504Z,100.00
2023-04-20T11:02:59.882Z,100.00
2023-04-20T11:05:27.208Z,100.00
2023-04-20T11:07:55.109Z,100.00
2023-04-20T11:10:24.278Z,100.00
2023-04-20T11:13:07.714Z,100.00
2023-04-20T11:15:35.059Z,100.00
2023-04-20T11:18:11.388Z,100.00
2023-04-20T11:20:52.239Z,100.00
2023-04-20T11:23:20.879Z,100.00
2023-04-20T11:25:52.565Z,100.00
2023-04-20T11:28:20.332Z,100.00
2023-04-20T11:30:49.190Z,100.00
2023-04-20T11:33:29.443Z,100.00
2023-04-20T11:35:57.521Z,100.00
2023-04-20T11:38:42.902Z,100.00
2023-04-20T11:41:10.459Z,100.00
2023-04-20T11:43:37.812Z,100.00
2023-04-20T11:46:35.243Z,100.00
2023-04-20T11:49:04.184Z,100.00
2023-04-20T11:51:31.713Z,100.00
2023-04-20T11:53:58.867Z,100.00
2023-04-20T11:56:26.434Z,100.00
2023-04-20T11:58:53.738Z,100.00
2023-04-20T12:01:21.036Z,100.00
2023-04-20T12:03:48.458Z,100.00
2023-04-20T12:06:15.963Z,100.00
2023-04-20T12:08:43.502Z,100.00
2023-04-20T12:11:10.766Z,100.00
2023-04-20T12:13:38.226Z,100.00
2023-04-20T12:16:06.434Z,100.00
2023-04-20T12:18:33.747Z,100.00
2023-04-20T12:21:01.016Z,100.00
2023-04-20T12:23:28.349Z,100.00
2023-04-20T12:25:55.697Z,100.00
2023-04-20T12:28:23.159Z,100.00
2023-04-20T12:30:50.716Z,100.00
2023-04-20T12:33:18.174Z,100.00
2023-04-20T12:35:45.558Z,100.00
2023-04-20T12:38:14.552Z,100.00
2023-04-20T12:40:41.797Z,100.00
2023-04-20T12:43:08.935Z,100.00
2023-04-20T12:45:36.810Z,100.00
2023-04-20T12:48:04.596Z,100.00
2023-04-20T12:50:31.910Z,100.00
2023-04-20T12:52:59.165Z,100.00
2023-04-20T12:55:26.422Z,100.00
2023-04-20T12:57:53.664Z,100.00
2023-04-20T13:00:21.534Z,100.00
2023-04-20T13:02:49.787Z,100.00
2023-04-20T13:05:16.984Z,100.00
2023-04-20T13:07:44.720Z,100.00
2023-04-20T13:10:12.186Z,100.00
2023-04-20T13:12:40.074Z,100.00
2023-04-20T13:15:08.761Z,99.56
2023-04-20T13:17:36.785Z,99.13
2023-04-20T13:20:05.914Z,98.82
2023-04-20T13:22:35.738Z,98.51
2023-04-20T13:25:05.932Z,98.94
2023-04-20T13:27:33.081Z,98.88
2023-04-20T13:30:00.305Z,98.94
2023-04-20T13:32:27.494Z,98.78
2023-04-20T13:34:54.744Z,98.78
2023-04-20T13:37:22.292Z,98.67
2023-04-20T13:39:49.542Z,99.01
2023-04-20T13:42:16.693Z,99.12
2023-04-20T13:44:43.934Z,98.99
2023-04-20T13:47:11.300Z,98.27
2023-04-20T13:49:38.448Z,98.51
2023-04-20T13:52:05.718Z,98.48
2023-04-20T13:54:33.056Z,98.64
2023-04-20T13:57:01.136Z,98.38
2023-04-20T13:59:28.630Z,98.34
2023-04-20T14:01:55.850Z,98.20
2023-04-20T14:04:23.509Z,98.26
2023-04-20T14:06:51.983Z,97.68
2023-04-20T14:09:19.357Z,97.72
2023-04-20T14:11:46.712Z,97.82
2023-04-20T14:14:14.200Z,97.48
2023-04-20T14:16:46.113Z,97.76
2023-04-20T14:19:13.672Z,97.36
2023-04-20T14:21:40.887Z,97.60
2023-04-20T14:24:08.826Z,97.29
2023-04-20T14:26:36.455Z,97.46
2023-04-20T14:29:04.520Z,96.92
2023-04-20T14:31:32.316Z,96.57
2023-04-20T14:33:59.584Z,96.46
2023-04-20T14:36:27.401Z,96.35
2023-04-20T14:38:55.276Z,96.17
2023-04-20T14:41:22.537Z,95.70
2023-04-20T14:43:49.781Z,96.22
2023-04-20T14:46:18.193Z,96.49
2023-04-20T14:48:46.042Z,96.42
2023-04-20T14:51:13.585Z,96.14
2023-04-20T14:53:40.779Z,96.23
2023-04-20T14:56:08.102Z,96.43
2023-04-20T14:58:36.971Z,96.39
2023-04-20T15:01:04.533Z,96.28
2023-04-20T15:03:32.329Z,96.41
2023-04-20T15:06:01.184Z,96.65
2023-04-20T15:08:28.551Z,95.98
2023-04-20T15:10:56.407Z,95.92
2023-04-20T15:13:23.974Z,95.46
2023-04-20T15:15:54.238Z,95.05
2023-04-20T15:18:22.869Z,94.86
2023-04-20T15:20:51.859Z,95.05
2023-04-20T15:23:19.560Z,94.97
2023-04-20T15:25:47.103Z,95.25
2023-04-20T15:28:15.158Z,95.30
2023-04-20T15:30:42.709Z,95.42
2023-04-20T15:33:10.630Z,95.44
2023-04-20T15:35:38.187Z,95.58
2023-04-20T15:38:08.893Z,95.75
2023-04-20T15:40:38.375Z,95.76
2023-04-20T15:43:06.243Z,96.03
2023-04-20T15:45:33.782Z,96.08
2023-04-20T15:48:01.532Z,96.31
2023-04-20T15:50:29.682Z,96.53
2023-04-20T15:52:57.211Z,96.70
2023-04-20T15:55:25.600Z,96.67
2023-04-20T15:57:56.821Z,96.59
2023-04-20T16:00:24.903Z,96.97
2023-04-20T16:02:53.879Z,96.92
2023-04-20T16:05:21.572Z,97.15
2023-04-20T16:07:48.850Z,97.46
2023-04-20T16:10:19.213Z,97.65
2023-04-20T16:12:46.886Z,97.80
2023-04-20T16:15:14.126Z,97.86
2023-04-20T16:17:43.891Z,97.82
2023-04-20T16:20:12.461Z,97.92
2023-04-20T16:22:40.380Z,98.21
2023-04-20T16:25:12.596Z,98.09
2023-04-20T16:27:42.928Z,98.24
2023-04-20T16:30:12.275Z,98.31
2023-04-20T16:32:41.659Z,98.72
2023-04-20T16:35:10.434Z,99.02
2023-04-20T16:37:38.467Z,99.12
2023-04-20T16:40:08.954Z,99.37
2023-04-20T16:42:36.635Z,99.39
2023-04-20T16:45:07.822Z,99.48
2023-04-20T16:47:40.165Z,99.57
2023-04-20T16:50:09.002Z,99.69
2023-04-20T16:52:37.445Z,99.99
2023-04-20T16:55:05.874Z,100.00
2023-04-20T16:57:33.686Z,100.00
2023-04-20T17:00:02.286Z,100.00
2023-04-20T17:02:32.783Z,100.00
2023-04-20T17:05:03.071Z,100.00
2023-04-20T17:07:30.919Z,100.00
2023-04-20T17:09:59.611Z,100.00
2023-04-20T17:12:27.310Z,100.00
2023-04-20T17:14:56.357Z,100.00
2023-04-20T17:17:25.764Z,100.00
2023-04-20T17:19:54.214Z,100.00
2023-04-20T17:22:22.702Z,100.00
2023-04-20T17:24:51.893Z,100.00
2023-04-20T17:27:20.160Z,100.00
2023-04-20T17:29:47.844Z,100.00
2023-04-20T17:32:15.619Z,100.00
2023-04-20T17:34:48.912Z,100.00
2023-04-20T17:37:20.046Z,100.00
2023-04-20T17:39:47.824Z,100.00
2023-04-20T17:42:18.615Z,100.00
2023-04-20T17:44:45.949Z,100.00
2023-04-20T17:47:14.454Z,100.00
2023-04-20T17:49:43.047Z,100.00
2023-04-20T17:52:15.839Z,100.00
2023-04-20T17:54:43.427Z,100.00
2023-04-20T17:57:13.805Z,100.00
2023-04-20T17:59:45.490Z,100.00
2023-04-20T18:02:13.233Z,100.00
2023-04-20T18:04:41.762Z,100.00
2023-04-20T18:07:09.674Z,100.00
2023-04-20T18:09:38.583Z,100.00
2023-04-20T18:12:12.683Z,100.00
2023-04-20T18:14:40.893Z,100.00
2023-04-20T18:17:08.441Z,100.00
2023-04-20T18:19:36.218Z,100.00
2023-04-20T18:22:06.194Z,100.00
2023-04-20T18:24:33.503Z,100.00
2023-04-20T18:27:01.620Z,100.00
2023-04-20T18:29:29.629Z,100.00
2023-04-20T18:31:58.849Z,100.00
2023-04-20T18:34:31.802Z,100.00
2023-04-20T18:36:59.239Z,100.00
2023-04-20T18:39:27.006Z,100.00
2023-04-20T18:41:54.965Z,100.00
2023-04-20T18:44:22.654Z,100.00
2023-04-20T18:46:50.569Z,100.00
2023-04-20T18:49:17.947Z,100.00
2023-04-20T18:51:45.508Z,100.00
2023-04-20T18:54:12.871Z,100.00
2023-04-20T18:56:40.964Z,100.00
2023-04-20T18:59:10.229Z,100.00
2023-04-20T19:01:40.148Z,100.00
2023-04-20T19:04:08.437Z,100.00
2023-04-20T19:06:37.413Z,100.00
2023-04-20T19:09:08.245Z,100.00
2023-04-20T19:11:36.050Z,100.00
2023-04-20T19:14:07.135Z,100.00
2023-04-20T19:16:34.873Z,100.00
2023-04-20T19:19:03.617Z,100.00
2023-04-20T19:21:32.736Z,100.00
2023-04-20T19:24:02.638Z,100.00
2023-04-20T19:26:30.844Z,100.00
2023-04-20T19:28:59.007Z,100.00
2023-04-20T19:31:31.710Z,100.00
2023-04-20T19:34:00.195Z,100.00
2023-04-20T19:36:28.101Z,100.00
2023-04-20T19:38:55.817Z,100.00
2023-04-20T19:41:26.031Z,100.00
2023-04-20T19:43:53.439Z,100.00
2023-04-20T19:46:21.767Z,100.00
2023-04-20T19:48:49.502Z,100.00
2023-04-20T19:51:16.947Z,100.00
2023-04-20T19:53:45.139Z,100.00
2023-04-20T19:56:12.423Z,100.00
2023-04-20T19:58:39.519Z,99.97
2023-04-20T20:01:07.003Z,99.90
2023-04-20T20:03:34.934Z,99.94
2023-04-20T20:06:04.642Z,99.98
2023-04-20T20:08:32.639Z,99.99
2023-04-20T20:10:59.990Z,99.83
2023-04-20T20:13:27.522Z,99.89
2023-04-20T20:16:03.724Z,100.00
2023-04-20T20:18:31.456Z,99.97
2023-04-20T20:20:58.698Z,99.84
2023-04-20T20:23:26.053Z,99.44
2023-04-20T20:25:53.532Z,99.23
2023-04-20T20:28:21.240Z,99.12
2023-04-20T20:30:48.556Z,98.87
2023-04-20T20:33:15.981Z,99.28
2023-04-20T20:35:44.096Z,99.45
2023-04-20T20:38:11.828Z,99.29
2023-04-20T20:40:39.575Z,99.08
2023-04-20T20:43:06.945Z,98.61
2023-04-20T20:45:34.409Z,98.44
2023-04-20T20:48:02.115Z,98.41
2023-04-20T20:50:29.814Z,98.09
2023-04-20T20:52:57.281Z,98.10
2023-04-20T20:55:25.037Z,98.22
2023-04-20T20:57:52.351Z,98.32
2023-04-20T21:00:20.009Z,98.01
2023-04-20T21:02:47.372Z,97.94
2023-04-20T21:05:14.618Z,97.88
2023-04-20T21:07:44.382Z,97.60
2023-04-20T21:10:11.981Z,97.71
2023-04-20T21:12:40.006Z,97.45
2023-04-20T21:15:09.736Z,97.72
2023-04-20T21:17:39.372Z,97.72
2023-04-20T21:20:09.136Z,97.80
2023-04-20T21:22:38.022Z,97.94
2023-04-20T21:25:06.096Z,97.92
2023-04-20T21:27:33.764Z,97.96
2023-04-20T21:30:03.059Z,98.03
2023-04-20T21:32:30.817Z,97.70
2023-04-20T21:34:57.880Z,97.77
2023-04-20T21:37:25.125Z,97.96
2023-04-20T21:39:52.386Z,98.05
2023-04-20T21:42:19.829Z,98.06
2023-04-20T21:44:47.083Z,98.00
2023-04-20T21:47:14.330Z,98.16
2023-04-20T21:49:43.320Z,98.25
2023-04-20T21:52:10.577Z,97.97
2023-04-20T21:54:39.672Z,97.67
2023-04-20T21:57:06.924Z,97.94
2023-04-20T21:59:34.812Z,97.88
2023-04-20T22:02:02.290Z,97.81
2023-04-20T22:04:30.056Z,97.78
2023-04-20T22:06:57.501Z,97.98
2023-04-20T22:09:25.445Z,97.77
2023-04-20T22:11:53.301Z,97.69
2023-04-20T22:14:20.861Z,97.28
2023-04-20T22:16:48.044Z,97.46
2023-04-20T22:19:15.992Z,97.49
2023-04-20T22:21:43.432Z,97.60
2023-04-20T22:24:10.603Z,97.37
2023-04-20T22:26:37.730Z,97.52
2023-04-20T22:29:04.948Z,97.55
2023-04-20T22:31:32.716Z,97.17
2023-04-20T22:34:00.203Z,97.30
2023-04-20T22:36:27.825Z,96.85
2023-04-20T22:38:54.993Z,97.07
2023-04-20T22:41:22.272Z,97.10
2023-04-20T22:43:49.530Z,97.22
2023-04-20T22:46:16.945Z,97.12
2023-04-20T22:48:47.248Z,97.07
2023-04-20T22:51:16.815Z,97.08
2023-04-20T22:53:44.161Z,96.97
2023-04-20T22:56:11.428Z,96.81
2023-04-20T22:58:38.764Z,96.92
2023-04-20T23:01:05.949Z,97.01
2023-04-20T23:03:33.472Z,97.03
2023-04-20T23:06:00.937Z,97.09
2023-04-20T23:08:28.199Z,97.27
2023-04-20T23:10:55.178Z,97.06
2023-04-20T23:13:25.663Z,97.18
2023-04-20T23:15:52.926Z,96.93
2023-04-20T23:18:20.704Z,97.02
2023-04-20T23:20:47.921Z,96.92
2023-04-20T23:23:15.190Z,96.97
2023-04-20T23:25:42.792Z,97.10
2023-04-20T23:28:10.419Z,96.74
2023-04-20T23:30:37.655Z,96.64
2023-04-20T23:33:05.144Z,96.25
2023-04-20T23:35:33.115Z,96.51
2023-04-20T23:38:00.531Z,96.31
2023-04-20T23:40:27.683Z,96.44
2023-04-20T23:42:54.840Z,96.51
2023-04-20T23:45:22.497Z,96.30
2023-04-20T23:47:49.670Z,96.21
2023-04-20T23:50:17.003Z,96.07
2023-04-20T23:52:44.262Z,96.08
2023-04-20T23:55:11.398Z,96.02
2023-04-20T23:57:39.475Z,95.78
